Fairview Park, Ohio
Current Conditions -  °F | °C
As of 7:51 PM on Tuesday 27 Jan 2015 (Local Time) from KCLE Reporting Station
Overcast Overcast  
Wind Chill:   Ceiling: 1500
Heat Index: 18°   Visibility: 10mi
Dew Point: 13°   Wind: 9mph
Humidity: 81%   Direction: 350°N
Pressure: 30.19"   Gusts: NA
Location:  41.45°N, 81.85°W
Report Text: KCLE 280051Z 35008KT 10SM OVC015 M08/M11 A3019 RMK AO2 SLP235 T10781106
Loading
Personal Weather Stations






























Interactive Weather Map New forecast layout! Learn more

10-Day Weather Forecast

Advertisements
Track Severe Weather on mobile